Panda — PBCS — position and weather

sailwx.info

Track history (hours):
 
Tides and Currents Weather Stations Pressure Air Temp Water Temp Dewpoint Dewpoint Depression Visibility Wind Speed Wind Dir Waves Ship Positions

Panda

Last reported at 2017-Mar-30 17:32 UTC. Time now 2017-Mar-30 18:27 UTC.
Position N 54°09' E 012°07'.

Length 89 m; draft 4.3 m.

Type: Cargo ship. MMSI: 245014000.

Date/timePositionNaut miles runAvg speedWind from/ knotsBaromVisibWave heightAir tempDewpointWater temp
2017-Mar-30 17:32N 54°09' E 012°07'0 0.0
2017-Mar-30 16:26N 54°09' E 012°07'0 0.0
2017-Mar-30 14:29N 54°09' E 012°07'0 0.0
2017-Mar-30 13:32N 54°09' E 012°07'0 0.0
2017-Mar-30 12:14N 54°09' E 012°07'0 0.0
2017-Mar-30 11:29N 54°09' E 012°07'4 4.8
2017-Mar-30 10:33N 54°13' E 012°03'2210.0
2017-Mar-30 08:21N 54°26' E 011°33'8 9.8
2017-Mar-30 07:33N 54°31' E 011°22'10 9.5
2017-Mar-30 06:33N 54°34' E 011°07'1010.4
2017-Mar-30 05:33N 54°33' E 010°49'59 7.4
2017-Mar-29 21:31N 54°05' E 009°19'3 3.3
2017-Mar-29 20:33N 54°02' E 009°18'7 6.9
2017-Mar-29 19:33N 53°56' E 009°13'4 3.6
2017-Mar-29 18:33N 53°53' E 009°08'7 6.5
2017-Mar-29 17:33N 53°51' E 008°58'7 7.2
2017-Mar-29 16:33N 53°51' E 008°46'3 2.7
2017-Mar-29 15:31N 53°53' E 008°43'6 5.9
2017-Mar-29 14:33N 53°57' E 008°37'10 9.8
2017-Mar-29 13:33N 53°59' E 008°20'1110.7
2017-Mar-29 12:33N 53°58' E 008°02'13910.6
2017-Mar-28 23:31N 53°05' E 004°27'9 9.6
2017-Mar-28 22:33N 52°56' E 004°19'10 9.7
2017-Mar-28 21:33N 52°48' E 004°11'10 9.7
2017-Mar-28 20:33N 52°40' E 004°02'1010.0
2017-Mar-28 19:32N 52°33' E 003°50'6211.7
2017-Mar-28 14:16N 51°48' E 002°41'1012.9
2017-Mar-28 13:32N 51°40' E 002°32'1313.0
2017-Mar-28 12:33N 51°31' E 002°18'1312.5
2017-Mar-28 11:33N 51°20' E 002°09'1212.2
2017-Mar-28 10:33N 51°10' E 001°56'1111.5
2017-Mar-28 09:33N 51°03' E 001°42'1010.1
2017-Mar-28 08:33N 50°55' E 001°32'11 8.7
2017-Mar-28 07:18N 50°46' E 001°22'16 9.0
2017-Mar-28 05:31N 50°35' E 001°04'10 9.3
2017-Mar-28 04:28N 50°31' E 000°50'11 9.5
2017-Mar-28 03:17N 50°28' E 000°33'7 9.4
2017-Mar-28 02:33N 50°25' E 000°23'9 9.3
2017-Mar-28 01:33N 50°23' E 000°09'9 8.8
2017-Mar-28 00:33N 50°24' W 000°05'10 9.8
2017-Mar-27 23:33N 50°28' W 000°19'1110.6
2017-Mar-27 22:33N 50°33' W 000°33'1111.2
2017-Mar-27 21:33N 50°38' W 000°49'1110.9
2017-Mar-27 20:34N 50°44' W 001°04'1111.2
2017-Mar-27 19:34N 50°50' W 001°19'7 0.4
2017-Mar-27 03:33N 50°54' W 001°26'0 0.0
2017-Mar-27 00:30N 50°54' W 001°26'0 0.0
2017-Mar-26 21:30N 50°54' W 001°26'0 0.0
2017-Mar-26 15:15N 50°54' W 001°26'0 0.0
2017-Mar-26 14:33N 50°54' W 001°26'0 0.0
2017-Mar-26 13:24N 50°54' W 001°26'0 0.0
2017-Mar-25 08:32N 50°54' W 001°26'0 0.0
2017-Mar-25 06:32N 50°54' W 001°26'0 0.0
2017-Mar-25 01:05N 50°54' W 001°26'0 0.0
2017-Mar-25 00:29N 50°54' W 001°26'0 0.0
2017-Mar-24 11:13N 50°54' W 001°26'0 0.0
2017-Mar-24 06:28N 50°54' W 001°26'0 0.0
2017-Mar-24 05:16N 50°54' W 001°26'0 0.0
2017-Mar-23 21:31N 50°54' W 001°26'5 5.1
2017-Mar-23 20:33N 50°51' W 001°20'6 6.4
2017-Mar-23 19:33N 50°45' W 001°24'8 7.6
2017-Mar-23 18:33N 50°41' W 001°34'10 9.6
2017-Mar-23 17:33N 50°36' W 001°47'3411.2
2017-Mar-23 14:33N 50°30' W 002°39'1110.7
2017-Mar-23 13:33N 50°30' W 002°56'1010.2
2017-Mar-23 12:33N 50°31' W 003°11'1010.3
2017-Mar-23 11:33N 50°32' W 003°28'2 1.8
2017-Mar-23 10:33N 50°33' W 003°30'0 0.0
2017-Mar-23 09:33N 50°33' W 003°30'0 0.0
2017-Mar-23 08:33N 50°33' W 003°30'0 0.0
2017-Mar-23 07:30N 50°33' W 003°30'0 0.0
2017-Mar-23 06:33N 50°33' W 003°30'0 0.0
2017-Mar-23 05:33N 50°33' W 003°30'0 0.0
2017-Mar-23 04:33N 50°33' W 003°30'0 0.0
2017-Mar-23 03:33N 50°33' W 003°30'0 0.0
2017-Mar-23 02:33N 50°33' W 003°30'0 0.0
2017-Mar-23 01:33N 50°33' W 003°30'0 0.0
2017-Mar-23 00:33N 50°33' W 003°30'0 0.0
2017-Mar-22 23:33N 50°33' W 003°30'0 0.0
2017-Mar-22 22:33N 50°33' W 003°30'0 0.0
2017-Mar-22 21:33N 50°33' W 003°30'0 0.0
2017-Mar-22 20:33N 50°33' W 003°30'0 0.0
2017-Mar-22 19:33N 50°33' W 003°30'0 0.0
2017-Mar-22 18:33N 50°33' W 003°30'0 0.0
2017-Mar-22 17:33N 50°33' W 003°30'0 0.0
2017-Mar-22 16:33N 50°33' W 003°30'0 0.0
2017-Mar-22 15:33N 50°33' W 003°30'0 0.0
2017-Mar-22 14:33N 50°33' W 003°30'0 0.0
2017-Mar-22 13:33N 50°33' W 003°30'0 0.0
2017-Mar-22 12:33N 50°33' W 003°30'0 0.0
2017-Mar-22 11:33N 50°33' W 003°30'0 0.0
2017-Mar-22 10:33N 50°33' W 003°30'0 0.0
2017-Mar-22 09:33N 50°33' W 003°30'0 0.0
2017-Mar-22 08:33N 50°33' W 003°30'0 0.0
2017-Mar-22 07:32N 50°33' W 003°30'0 0.0
2017-Mar-22 06:32N 50°33' W 003°30'0 0.0
2017-Mar-22 05:32N 50°33' W 003°30'0 0.0
2017-Mar-22 04:32N 50°33' W 003°30'0 0.0
2017-Mar-22 03:32N 50°33' W 003°30'0 0.0
2017-Mar-22 02:32N 50°33' W 003°30'0 0.0
2017-Mar-22 01:32N 50°33' W 003°30'0 0.0
2017-Mar-22 00:32N 50°33' W 003°30'0 0.0
2017-Mar-21 23:32N 50°33' W 003°30'1 0.6
2017-Mar-21 22:33N 50°32' W 003°30'2 2.0
2017-Mar-21 21:33N 50°32' W 003°26'7 6.8
2017-Mar-21 20:34N 50°31' W 003°16'9 9.5
2017-Mar-21 19:33N 50°29' W 003°01'9 9.4
2017-Mar-21 18:33N 50°27' W 002°47'10 9.7
2017-Mar-21 17:33N 50°25' W 002°32'42 8.2
2017-Mar-21 12:30N 50°17' W 001°28'38 9.3
2017-Mar-21 08:23N 50°09' W 000°30'910.7
2017-Mar-21 07:33N 50°07' W 000°16'1110.5
2017-Mar-21 06:33N 50°05' E 000°00'1010.3
2017-Mar-21 05:33N 50°03' E 000°16'  
Track history (hours):
 
Tides and Currents Weather Stations Pressure Air Temp Water Temp Dewpoint Dewpoint Depression Visibility Wind Speed Wind Dir Waves Ship Positions

Panda

Last reported at 2017-Mar-30 17:32 UTC. Time now 2017-Mar-30 18:27 UTC.
Position N 54°09' E 012°07'.

Length 89 m; draft 4.3 m.

Type: Cargo ship. MMSI: 245014000.

Date/timePositionNaut miles runAvg speedWind from/ knotsBaromVisibWave heightAir tempDewpointWater temp
2017-Mar-30 17:32N 54°09' E 012°07'0 0.0
2017-Mar-30 16:26N 54°09' E 012°07'0 0.0
2017-Mar-30 14:29N 54°09' E 012°07'0 0.0
2017-Mar-30 13:32N 54°09' E 012°07'0 0.0
2017-Mar-30 12:14N 54°09' E 012°07'0 0.0
2017-Mar-30 11:29N 54°09' E 012°07'4 4.8
2017-Mar-30 10:33N 54°13' E 012°03'2210.0
2017-Mar-30 08:21N 54°26' E 011°33'8 9.8
2017-Mar-30 07:33N 54°31' E 011°22'10 9.5
2017-Mar-30 06:33N 54°34' E 011°07'1010.4
2017-Mar-30 05:33N 54°33' E 010°49'59 7.4
2017-Mar-29 21:31N 54°05' E 009°19'3 3.3
2017-Mar-29 20:33N 54°02' E 009°18'7 6.9
2017-Mar-29 19:33N 53°56' E 009°13'4 3.6
2017-Mar-29 18:33N 53°53' E 009°08'7 6.5
2017-Mar-29 17:33N 53°51' E 008°58'7 7.2
2017-Mar-29 16:33N 53°51' E 008°46'3 2.7
2017-Mar-29 15:31N 53°53' E 008°43'6 5.9
2017-Mar-29 14:33N 53°57' E 008°37'10 9.8
2017-Mar-29 13:33N 53°59' E 008°20'1110.7
2017-Mar-29 12:33N 53°58' E 008°02'13910.6
2017-Mar-28 23:31N 53°05' E 004°27'9 9.6
2017-Mar-28 22:33N 52°56' E 004°19'10 9.7
2017-Mar-28 21:33N 52°48' E 004°11'10 9.7
2017-Mar-28 20:33N 52°40' E 004°02'1010.0
2017-Mar-28 19:32N 52°33' E 003°50'6211.7
2017-Mar-28 14:16N 51°48' E 002°41'1012.9
2017-Mar-28 13:32N 51°40' E 002°32'1313.0
2017-Mar-28 12:33N 51°31' E 002°18'1312.5
2017-Mar-28 11:33N 51°20' E 002°09'1212.2
2017-Mar-28 10:33N 51°10' E 001°56'1111.5
2017-Mar-28 09:33N 51°03' E 001°42'1010.1
2017-Mar-28 08:33N 50°55' E 001°32'11 8.7
2017-Mar-28 07:18N 50°46' E 001°22'16 9.0
2017-Mar-28 05:31N 50°35' E 001°04'10 9.3
2017-Mar-28 04:28N 50°31' E 000°50'11 9.5
2017-Mar-28 03:17N 50°28' E 000°33'7 9.4
2017-Mar-28 02:33N 50°25' E 000°23'9 9.3
2017-Mar-28 01:33N 50°23' E 000°09'9 8.8
2017-Mar-28 00:33N 50°24' W 000°05'10 9.8
2017-Mar-27 23:33N 50°28' W 000°19'1110.6
2017-Mar-27 22:33N 50°33' W 000°33'1111.2
2017-Mar-27 21:33N 50°38' W 000°49'1110.9
2017-Mar-27 20:34N 50°44' W 001°04'1111.2
2017-Mar-27 19:34N 50°50' W 001°19'7 0.4
2017-Mar-27 03:33N 50°54' W 001°26'0 0.0
2017-Mar-27 00:30N 50°54' W 001°26'0 0.0
2017-Mar-26 21:30N 50°54' W 001°26'0 0.0
2017-Mar-26 15:15N 50°54' W 001°26'0 0.0
2017-Mar-26 14:33N 50°54' W 001°26'0 0.0
2017-Mar-26 13:24N 50°54' W 001°26'0 0.0
2017-Mar-25 08:32N 50°54' W 001°26'0 0.0
2017-Mar-25 06:32N 50°54' W 001°26'0 0.0
2017-Mar-25 01:05N 50°54' W 001°26'0 0.0
2017-Mar-25 00:29N 50°54' W 001°26'0 0.0
2017-Mar-24 11:13N 50°54' W 001°26'0 0.0
2017-Mar-24 06:28N 50°54' W 001°26'0 0.0
2017-Mar-24 05:16N 50°54' W 001°26'0 0.0
2017-Mar-23 21:31N 50°54' W 001°26'5 5.1
2017-Mar-23 20:33N 50°51' W 001°20'6 6.4
2017-Mar-23 19:33N 50°45' W 001°24'8 7.6
2017-Mar-23 18:33N 50°41' W 001°34'10 9.6
2017-Mar-23 17:33N 50°36' W 001°47'3411.2
2017-Mar-23 14:33N 50°30' W 002°39'1110.7
2017-Mar-23 13:33N 50°30' W 002°56'1010.2
2017-Mar-23 12:33N 50°31' W 003°11'1010.3
2017-Mar-23 11:33N 50°32' W 003°28'2 1.8
2017-Mar-23 10:33N 50°33' W 003°30'0 0.0
2017-Mar-23 09:33N 50°33' W 003°30'0 0.0
2017-Mar-23 08:33N 50°33' W 003°30'0 0.0
2017-Mar-23 07:30N 50°33' W 003°30'0 0.0
2017-Mar-23 06:33N 50°33' W 003°30'0 0.0
2017-Mar-23 05:33N 50°33' W 003°30'0 0.0
2017-Mar-23 04:33N 50°33' W 003°30'0 0.0
2017-Mar-23 03:33N 50°33' W 003°30'0 0.0
2017-Mar-23 02:33N 50°33' W 003°30'0 0.0
2017-Mar-23 01:33N 50°33' W 003°30'0 0.0
2017-Mar-23 00:33N 50°33' W 003°30'0 0.0
2017-Mar-22 23:33N 50°33' W 003°30'0 0.0
2017-Mar-22 22:33N 50°33' W 003°30'0 0.0
2017-Mar-22 21:33N 50°33' W 003°30'0 0.0
2017-Mar-22 20:33N 50°33' W 003°30'0 0.0
2017-Mar-22 19:33N 50°33' W 003°30'0 0.0
2017-Mar-22 18:33N 50°33' W 003°30'0 0.0
2017-Mar-22 17:33N 50°33' W 003°30'0 0.0
2017-Mar-22 16:33N 50°33' W 003°30'0 0.0
2017-Mar-22 15:33N 50°33' W 003°30'0 0.0
2017-Mar-22 14:33N 50°33' W 003°30'0 0.0
2017-Mar-22 13:33N 50°33' W 003°30'0 0.0
2017-Mar-22 12:33N 50°33' W 003°30'0 0.0
2017-Mar-22 11:33N 50°33' W 003°30'0 0.0
2017-Mar-22 10:33N 50°33' W 003°30'0 0.0
2017-Mar-22 09:33N 50°33' W 003°30'0 0.0
2017-Mar-22 08:33N 50°33' W 003°30'0 0.0
2017-Mar-22 07:32N 50°33' W 003°30'0 0.0
2017-Mar-22 06:32N 50°33' W 003°30'0 0.0
2017-Mar-22 05:32N 50°33' W 003°30'0 0.0
2017-Mar-22 04:32N 50°33' W 003°30'0 0.0
2017-Mar-22 03:32N 50°33' W 003°30'0 0.0
2017-Mar-22 02:32N 50°33' W 003°30'0 0.0
2017-Mar-22 01:32N 50°33' W 003°30'0 0.0
2017-Mar-22 00:32N 50°33' W 003°30'0 0.0
2017-Mar-21 23:32N 50°33' W 003°30'1 0.6
2017-Mar-21 22:33N 50°32' W 003°30'2 2.0
2017-Mar-21 21:33N 50°32' W 003°26'7 6.8
2017-Mar-21 20:34N 50°31' W 003°16'9 9.5
2017-Mar-21 19:33N 50°29' W 003°01'9 9.4
2017-Mar-21 18:33N 50°27' W 002°47'10 9.7
2017-Mar-21 17:33N 50°25' W 002°32'42 8.2
2017-Mar-21 12:30N 50°17' W 001°28'38 9.3
2017-Mar-21 08:23N 50°09' W 000°30'910.7
2017-Mar-21 07:33N 50°07' W 000°16'1110.5
2017-Mar-21 06:33N 50°05' E 000°00'1010.3
2017-Mar-21 05:33N 50°03' E 000°16'  

Dump ship's entire track history